Time;durP1;ratioP1;P1;durP2;ratioP2;P2;SDS_P1;SDS_P2;PMS_P1;PMS_P2;Temp;Humidity;BMP_temperature;BMP_pressure;BME280_temperature;BME280_humidity;BME280_pressure;Samples;Min_cycle;Max_cycle;Signal;HPM_P1;HPM_P2
2021/01/14 00:00:08;;;;;;;2.80;1.70;;;;;;;4.44;79.49;96194.59;5074121;28;20032;-71
2021/01/14 00:02:35;;;;;;;6.00;2.85;;;;;;;4.24;81.10;96195.22;5068685;28;20045;-71
2021/01/14 00:05:05;;;;;;;7.80;3.47;;;;;;;4.26;82.10;96195.00;5075073;28;20035;-72
2021/01/14 00:07:32;;;;;;;7.07;2.63;;;;;;;4.33;82.13;96195.91;5072484;28;20546;-71
2021/01/14 00:09:58;;;;;;;5.55;2.40;;;;;;;4.38;81.92;96205.72;5076068;28;20048;-71
2021/01/14 00:12:24;;;;;;;5.25;2.83;;;;;;;4.30;81.48;96198.06;5073507;28;20032;-70
2021/01/14 00:14:51;;;;;;;5.75;2.65;;;;;;;4.25;81.47;96220.16;5074974;28;20048;-70
2021/01/14 00:17:18;;;;;;;0.40;0.40;;;;;;;4.04;79.66;96230.50;5053826;28;20045;-71
2021/01/14 00:19:45;;;;;;;0.52;0.52;;;;;;;3.50;79.28;96230.81;5054686;28;20132;-71
2021/01/14 00:22:11;;;;;;;0.68;0.57;;;;;;;2.96;79.52;96235.22;5052013;28;20053;-72
2021/01/14 00:24:37;;;;;;;0.65;0.60;;;;;;;2.38;79.90;96226.25;5054477;28;20056;-71
2021/01/14 00:27:04;;;;;;;4.30;2.10;;;;;;;2.19;82.12;96227.50;5041977;28;20049;-72
2021/01/14 00:29:31;;;;;;;1.77;1.50;;;;;;;2.18;82.01;96228.47;5034632;28;20061;-71
2021/01/14 00:31:57;;;;;;;1.30;0.90;;;;;;;2.17;81.75;96225.09;5025547;28;20041;-71
2021/01/14 00:34:24;;;;;;;0.50;0.50;;;;;;;1.97;80.73;96229.06;5051199;28;20061;-71
2021/01/14 00:39:46;;;;;;;4.57;0.80;;;;;;;1.64;80.88;96229.22;5048772;28;20492;-73
2021/01/14 00:42:18;;;;;;;1.98;1.00;;;;;;;1.55;81.45;96232.78;5028754;28;20045;-71
2021/01/14 00:44:45;;;;;;;1.00;0.90;;;;;;;1.49;82.13;96238.63;5053775;28;20045;-71
2021/01/14 00:47:11;;;;;;;2.10;0.73;;;;;;;1.32;81.80;96233.47;5048656;28;20052;-72
2021/01/14 00:49:37;;;;;;;1.00;0.90;;;;;;;1.17;81.95;96240.31;5054288;28;20044;-71
2021/01/14 00:52:04;;;;;;;1.52;0.95;;;;;;;1.01;82.32;96244.53;5044101;28;20401;-71
2021/01/14 00:54:30;;;;;;;0.90;0.88;;;;;;;0.95;83.06;96239.22;5050568;28;20052;-71
2021/01/14 00:56:56;;;;;;;1.15;0.90;;;;;;;0.95;83.13;96234.84;5041324;28;20045;-71
2021/01/14 00:59:22;;;;;;;1.85;1.00;;;;;;;0.87;83.07;96236.63;5054091;28;20037;-71
2021/01/14 01:01:49;;;;;;;2.08;1.00;;;;;;;0.80;83.71;96239.84;5049487;28;20390;-71
2021/01/14 01:04:15;;;;;;;0.80;0.80;;;;;;;0.73;83.88;96235.50;5015849;28;20052;-71
2021/01/14 01:06:42;;;;;;;2.00;1.10;;;;;;;0.63;83.81;96247.75;5049534;28;20051;-72
2021/01/14 01:09:10;;;;;;;1.13;1.02;;;;;;;0.58;84.51;96243.06;5044255;28;20045;-71
2021/01/14 01:11:38;;;;;;;2.65;0.70;;;;;;;0.55;84.94;96262.25;5045743;28;20041;-71
2021/01/14 01:14:05;;;;;;;0.80;0.80;;;;;;;0.54;84.42;96249.50;5051618;28;20359;-71
2021/01/14 01:16:32;;;;;;;0.68;0.60;;;;;;;0.57;84.61;96251.78;5042759;28;20053;-71
2021/01/14 01:18:58;;;;;;;0.70;0.52;;;;;;;0.60;84.95;96251.47;5051395;28;20053;-71
2021/01/14 01:21:24;;;;;;;0.70;0.60;;;;;;;0.60;85.09;96257.41;5034915;28;20523;-71
2021/01/14 01:23:51;;;;;;;0.90;0.50;;;;;;;0.64;85.80;96257.91;5046855;28;20413;-71
2021/01/14 01:26:18;;;;;;;0.60;0.60;;;;;;;0.63;85.79;96256.31;5050681;28;20041;-71
2021/01/14 01:28:45;;;;;;;0.70;0.65;;;;;;;0.66;85.25;96250.81;5052752;28;20424;-71
2021/01/14 01:31:14;;;;;;;0.50;0.50;;;;;;;0.70;85.47;96253.88;5048511;28;20045;-71
2021/01/14 01:33:41;;;;;;;0.63;0.60;;;;;;;0.69;85.24;96263.38;5011623;28;20052;-71
2021/01/14 01:36:11;;;;;;;0.70;0.70;;;;;;;0.67;84.71;96265.31;5027802;28;20036;-71
2021/01/14 01:38:37;;;;;;;0.63;0.63;;;;;;;0.68;85.10;96276.47;5045704;28;20045;-71
2021/01/14 01:41:04;;;;;;;1.13;0.60;;;;;;;0.71;85.29;96258.06;5048649;28;20059;-72
2021/01/14 01:43:30;;;;;;;0.77;0.77;;;;;;;0.74;84.91;96255.19;5051923;28;20501;-72
2021/01/14 01:45:57;;;;;;;1.23;0.60;;;;;;;0.75;84.95;96252.41;5042102;28;20064;-71
2021/01/14 01:48:24;;;;;;;0.70;0.70;;;;;;;0.78;84.40;96264.22;5049705;28;20045;-72
2021/01/14 01:50:55;;;;;;;0.73;0.70;;;;;;;0.79;84.41;96270.97;5041378;28;20053;-71
2021/01/14 01:53:22;;;;;;;1.05;0.75;;;;;;;0.75;84.48;96290.34;5043651;28;20070;-71
2021/01/14 01:55:49;;;;;;;1.20;0.85;;;;;;;0.73;84.77;96280.16;5049205;28;20490;-72
2021/01/14 01:58:20;;;;;;;1.85;0.75;;;;;;;0.69;84.68;96275.50;5052834;28;20041;-72
2021/01/14 02:00:47;;;;;;;0.60;0.60;;;;;;;0.68;85.04;96269.53;5045866;28;20397;-71
2021/01/14 02:03:13;;;;;;;0.70;0.70;;;;;;;0.73;85.23;96269.84;5034037;28;20037;-71
2021/01/14 02:05:39;;;;;;;1.05;0.80;;;;;;;0.79;84.98;96279.53;5047203;28;20064;-71
2021/01/14 02:08:05;;;;;;;1.35;0.80;;;;;;;0.81;85.06;96280.16;5051994;28;20508;-72
2021/01/14 02:10:39;;;;;;;1.30;0.80;;;;;;;0.84;85.08;96280.81;5048009;28;20386;-71
2021/01/14 02:13:27;;;;;;;1.23;0.73;;;;;;;0.87;85.28;96275.34;5043432;28;20362;-72
2021/01/14 02:15:57;;;;;;;0.98;0.82;;;;;;;0.88;85.01;96276.94;5047469;28;20033;-71
2021/01/14 02:18:25;;;;;;;1.25;0.88;;;;;;;0.89;85.01;96288.91;5040952;28;20067;-71
2021/01/14 02:20:55;;;;;;;0.70;0.63;;;;;;;0.91;85.19;96282.59;5049045;28;20060;-72
2021/01/14 02:23:29;;;;;;;1.90;0.63;;;;;;;0.98;85.20;96280.97;5050724;28;20056;-71
2021/01/14 02:26:16;;;;;;;0.80;0.63;;;;;;;1.03;85.40;96293.44;5032712;28;20044;-71
2021/01/14 02:28:44;;;;;;;1.27;0.85;;;;;;;1.07;85.44;96286.16;5050252;28;20054;-71
2021/01/14 02:31:14;;;;;;;0.50;0.50;;;;;;;1.11;85.12;96295.97;5044182;28;20371;-72
2021/01/14 02:33:41;;;;;;;1.00;0.90;;;;;;;1.12;85.22;96312.31;5048831;28;20052;-71
2021/01/14 02:36:08;;;;;;;0.75;0.68;;;;;;;1.13;85.00;96301.78;5044600;28;20049;-71
2021/01/14 02:38:35;;;;;;;0.65;0.65;;;;;;;1.17;84.92;96297.13;5047296;28;20060;-71
2021/01/14 02:41:01;;;;;;;1.65;0.82;;;;;;;1.17;84.90;96305.66;5050053;28;20044;-72
2021/01/14 02:43:28;;;;;;;0.70;0.60;;;;;;;1.21;85.06;96306.16;5051817;28;20465;-72
2021/01/14 02:45:55;;;;;;;3.65;0.68;;;;;;;1.24;85.05;96311.03;5031847;28;20318;-72
2021/01/14 02:48:28;;;;;;;2.15;0.70;;;;;;;1.25;84.94;96322.16;5051052;28;20049;-72
2021/01/14 02:50:59;;;;;;;1.90;0.70;;;;;;;1.23;85.03;96317.13;5046101;28;20048;-71
2021/01/14 02:53:28;;;;;;;0.85;0.60;;;;;;;1.24;84.87;96316.19;5041670;28;20047;-71
2021/01/14 02:55:55;;;;;;;1.17;0.45;;;;;;;1.27;84.88;96317.63;5047632;28;20489;-72
2021/01/14 02:58:22;;;;;;;2.45;0.80;;;;;;;1.25;84.92;96311.81;5048278;28;20048;-71
2021/01/14 03:00:48;;;;;;;0.90;0.63;;;;;;;1.28;84.99;96306.31;5019295;28;20041;-71
2021/01/14 03:03:14;;;;;;;0.68;0.68;;;;;;;1.29;84.82;96311.31;5043891;28;20044;-72
2021/01/14 03:05:41;;;;;;;1.25;0.77;;;;;;;1.29;84.90;96313.91;5040306;28;20056;-72
2021/01/14 03:08:07;;;;;;;0.85;0.65;;;;;;;1.31;84.86;96313.75;5053623;28;20045;-71
2021/01/14 03:10:33;;;;;;;2.83;0.60;;;;;;;1.31;84.82;96309.38;5054957;28;20044;-72
2021/01/14 03:12:59;;;;;;;0.82;0.60;;;;;;;1.30;84.84;96307.78;5032060;28;20051;-71
2021/01/14 03:15:25;;;;;;;2.47;1.00;;;;;;;1.31;84.74;96293.88;5056705;28;20041;-71
2021/01/14 03:17:53;;;;;;;1.05;0.80;;;;;;;1.31;84.76;96304.22;5047681;28;20049;-72
2021/01/14 03:20:20;;;;;;;3.42;0.90;;;;;;;1.31;84.82;96300.84;5051368;28;20421;-72
2021/01/14 03:22:46;;;;;;;1.35;0.75;;;;;;;1.31;84.89;96300.84;5052569;28;20040;-72
2021/01/14 03:25:12;;;;;;;2.20;0.88;;;;;;;1.30;84.75;96297.47;5037031;28;20408;-71
2021/01/14 03:27:40;;;;;;;0.77;0.68;;;;;;;1.29;84.84;96316.50;5051582;28;20045;-71
2021/01/14 03:30:08;;;;;;;1.05;0.80;;;;;;;1.27;84.89;96320.22;5055220;28;20045;-72
2021/01/14 03:32:35;;;;;;;1.60;0.90;;;;;;;1.27;84.93;96315.84;5054369;28;20052;-72
2021/01/14 03:35:01;;;;;;;4.00;1.00;;;;;;;1.26;85.01;96316.84;5051752;28;20048;-72
2021/01/14 03:37:28;;;;;;;1.80;0.90;;;;;;;1.26;84.95;96314.25;5044767;28;20397;-71
2021/01/14 03:39:54;;;;;;;1.65;0.85;;;;;;;1.25;84.97;96315.19;5054316;28;20055;-72
2021/01/14 03:42:22;;;;;;;0.90;0.80;;;;;;;1.25;85.07;96311.81;5046261;28;20029;-71
2021/01/14 03:44:49;;;;;;;1.90;1.20;;;;;;;1.25;85.18;96315.19;5036763;28;20051;-72
2021/01/14 03:47:15;;;;;;;3.13;1.13;;;;;;;1.26;84.91;96314.25;5054379;28;20473;-72
2021/01/14 03:49:42;;;;;;;4.45;1.00;;;;;;;1.26;85.10;96318.59;5049705;28;20057;-72
2021/01/14 03:52:09;;;;;;;1.70;1.02;;;;;;;1.26;85.02;96326.34;5053133;28;20047;-72
2021/01/14 03:54:36;;;;;;;4.05;1.20;;;;;;;1.26;84.96;96334.91;5052290;28;20041;-72
2021/01/14 03:57:03;;;;;;;1.60;1.30;;;;;;;1.25;85.06;96332.47;5051483;28;20049;-72
2021/01/14 03:59:29;;;;;;;2.03;1.27;;;;;;;1.25;84.92;96335.06;5053854;28;20047;-72
2021/01/14 04:02:06;;;;;;;2.63;1.65;;;;;;;1.25;85.09;96340.22;5052191;28;20052;-72
2021/01/14 04:04:34;;;;;;;1.40;1.30;;;;;;;1.23;85.15;96342.97;5048660;28;20060;-72
2021/01/14 04:07:00;;;;;;;3.13;1.35;;;;;;;1.22;85.12;96325.88;5055361;28;20366;-72
2021/01/14 04:09:27;;;;;;;2.72;1.20;;;;;;;1.23;85.17;96334.41;5037789;28;20044;-71
2021/01/14 04:11:53;;;;;;;3.00;1.58;;;;;;;1.24;85.09;96342.03;5046854;28;20484;-71
2021/01/14 04:14:20;;;;;;;2.67;1.17;;;;;;;1.23;85.24;96337.81;5049670;28;20056;-73
2021/01/14 04:16:50;;;;;;;1.55;1.20;;;;;;;1.22;85.15;96341.38;5053756;28;20396;-72
2021/01/14 04:19:17;;;;;;;1.40;1.30;;;;;;;1.24;85.14;96346.34;5051144;28;20049;-72
2021/01/14 04:21:44;;;;;;;2.15;1.50;;;;;;;1.24;85.24;96344.59;5051314;28;20053;-72
2021/01/14 04:24:11;;;;;;;1.75;1.20;;;;;;;1.25;85.13;96351.38;5051880;28;20040;-72
2021/01/14 04:26:38;;;;;;;3.33;1.35;;;;;;;1.23;85.03;96342.97;5048639;28;20060;-72
2021/01/14 04:29:05;;;;;;;1.77;1.38;;;;;;;1.23;85.04;96337.81;5055757;28;20036;-72
2021/01/14 04:31:32;;;;;;;1.75;1.30;;;;;;;1.24;85.12;96347.19;5053163;28;20072;-71
2021/01/14 04:33:59;;;;;;;2.00;1.60;;;;;;;1.23;85.03;96355.88;5049726;28;20053;-72
2021/01/14 04:36:25;;;;;;;1.98;1.70;;;;;;;1.23;85.16;96358.47;5051040;28;20044;-72
2021/01/14 04:38:51;;;;;;;1.73;1.63;;;;;;;1.22;85.03;96364.63;5047513;28;20060;-72
2021/01/14 04:41:20;;;;;;;4.15;2.08;;;;;;;1.21;85.16;96374.13;5046360;28;20058;-72
2021/01/14 04:43:48;;;;;;;2.90;1.80;;;;;;;1.18;85.14;96366.72;5053810;28;20037;-71
2021/01/14 04:46:15;;;;;;;2.67;1.90;;;;;;;1.19;85.08;96360.56;5055460;28;20025;-72
2021/01/14 04:48:46;;;;;;;2.50;1.98;;;;;;;1.18;85.12;96364.13;5044455;28;20049;-72
2021/01/14 04:51:15;;;;;;;2.28;1.90;;;;;;;1.19;85.18;96364.94;5054512;28;20032;-72
2021/01/14 04:53:48;;;;;;;5.22;2.28;;;;;;;1.18;85.28;96360.75;5052700;28;20049;-72
2021/01/14 04:56:17;;;;;;;3.40;2.08;;;;;;;1.17;85.26;96354.75;5051168;28;20132;-72
2021/01/14 04:58:48;;;;;;;3.80;1.95;;;;;;;1.17;85.28;96353.94;5054149;28;20041;-73
2021/01/14 05:01:23;;;;;;;3.47;2.17;;;;;;;1.17;85.42;96352.16;5027848;28;20050;-72
2021/01/14 05:03:51;;;;;;;4.38;2.70;;;;;;;1.17;85.37;96348.78;5027656;28;20036;-72
2021/01/14 05:06:21;;;;;;;3.90;2.40;;;;;;;1.16;85.37;96354.94;5040236;28;20052;-72
2021/01/14 05:08:50;;;;;;;3.90;2.90;;;;;;;1.15;85.30;96354.09;5051535;28;20045;-72
2021/01/14 05:11:17;;;;;;;5.07;3.00;;;;;;;1.15;85.29;96351.50;5047574;28;20049;-72
2021/01/14 05:13:45;;;;;;;5.95;3.63;;;;;;;1.15;85.30;96356.69;5053547;28;20060;-72
2021/01/14 05:16:12;;;;;;;7.45;4.40;;;;;;;1.15;85.38;96369.59;5052339;28;20053;-72
2021/01/14 05:18:42;;;;;;;6.82;4.35;;;;;;;1.14;85.45;96368.00;5049030;28;20041;-72
2021/01/14 05:21:08;;;;;;;9.98;5.47;;;;;;;1.13;85.38;96362.97;5045326;28;20507;-72
2021/01/14 05:23:35;;;;;;;8.63;5.07;;;;;;;1.08;85.21;96373.81;5049818;28;20045;-72
2021/01/14 05:26:02;;;;;;;8.75;5.00;;;;;;;1.07;85.49;96368.78;5017814;28;20420;-72
2021/01/14 05:28:29;;;;;;;10.77;5.43;;;;;;;1.05;85.49;96373.31;5050893;28;20049;-72
2021/01/14 05:31:19;;;;;;;7.85;4.63;;;;;;;1.06;85.88;96380.91;5049420;28;20056;-75
2021/01/14 05:33:57;;;;;;;7.80;5.63;;;;;;;1.04;85.60;96388.00;5052811;28;20504;-72
2021/01/14 05:36:24;;;;;;;7.03;4.82;;;;;;;1.05;85.58;96381.88;5045503;28;20052;-72
2021/01/14 05:38:51;;;;;;;9.07;6.00;;;;;;;1.05;85.63;96381.03;5041591;28;20082;-72
2021/01/14 05:41:25;;;;;;;6.70;4.32;;;;;;;1.05;85.78;96387.03;5047416;28;20798;-72
2021/01/14 05:43:58;;;;;;;7.68;5.10;;;;;;;1.05;85.71;96391.38;5053094;28;20397;-71
2021/01/14 05:46:29;;;;;;;7.18;5.13;;;;;;;1.05;85.72;96396.53;5050856;28;20039;-72
2021/01/14 05:48:58;;;;;;;9.43;6.78;;;;;;;1.06;85.80;96396.38;5018799;28;20048;-72
2021/01/14 05:51:26;;;;;;;10.27;6.95;;;;;;;1.06;85.78;96400.75;5049699;28;20465;-74
2021/01/14 05:53:55;;;;;;;13.80;7.05;;;;;;;1.07;85.83;96386.84;5046408;28;20045;-72
2021/01/14 05:56:30;;;;;;;9.18;6.60;;;;;;;1.06;85.88;96391.22;5048659;28;20045;-71
2021/01/14 05:58:57;;;;;;;10.13;7.18;;;;;;;1.07;85.80;96392.84;5053618;28;20048;-72
2021/01/14 06:01:24;;;;;;;9.95;6.88;;;;;;;1.07;85.69;96397.19;5051759;28;20045;-71
2021/01/14 06:03:51;;;;;;;9.63;6.35;;;;;;;1.08;85.81;96409.16;5034956;28;20072;-72
2021/01/14 06:06:18;;;;;;;10.05;6.13;;;;;;;1.06;85.87;96409.31;5049802;28;20396;-72
2021/01/14 06:08:45;;;;;;;10.25;5.93;;;;;;;1.07;86.04;96407.53;5046074;28;20409;-73
2021/01/14 06:11:22;;;;;;;14.25;7.60;;;;;;;1.06;86.03;96395.59;5023117;28;20053;-72
2021/01/14 06:13:49;;;;;;;10.90;7.07;;;;;;;1.06;85.82;96408.50;5051105;28;20047;-71
2021/01/14 06:16:16;;;;;;;12.48;7.45;;;;;;;1.06;85.81;96411.88;5052922;28;20044;-72
2021/01/14 06:19:07;;;;;;;13.75;8.55;;;;;;;1.07;86.03;96418.69;5051143;28;20055;-72
2021/01/14 06:21:45;;;;;;;14.00;7.30;;;;;;;1.07;85.99;96417.84;5044428;28;20045;-72
2021/01/14 06:24:25;;;;;;;13.77;7.13;;;;;;;1.05;86.01;96425.78;5048045;28;20068;-72
2021/01/14 06:26:53;;;;;;;10.88;6.18;;;;;;;1.04;85.86;96424.16;5046434;28;20044;-72
2021/01/14 06:29:21;;;;;;;9.02;6.35;;;;;;;0.98;85.90;96437.69;5052698;28;20041;-71
2021/01/14 06:31:48;;;;;;;14.55;7.78;;;;;;;0.97;85.99;96436.88;5032828;28;20059;-71
2021/01/14 06:34:19;;;;;;;13.85;8.27;;;;;;;0.97;86.01;96438.66;5051071;28;20473;-72
2021/01/14 06:36:47;;;;;;;13.05;6.82;;;;;;;0.95;86.10;96453.50;5048040;28;20057;-72
2021/01/14 06:39:16;;;;;;;6.28;4.10;;;;;;;0.91;86.27;96447.03;5051715;28;20048;-72
2021/01/14 06:41:45;;;;;;;4.72;3.70;;;;;;;0.85;85.97;96445.88;5031055;28;20405;-72
2021/01/14 06:44:15;;;;;;;3.20;2.72;;;;;;;0.77;85.74;96448.44;5052852;28;20044;-71
2021/01/14 06:46:42;;;;;;;4.32;3.10;;;;;;;0.72;86.03;96463.59;5050518;28;20056;-73
2021/01/14 06:49:11;;;;;;;3.53;2.83;;;;;;;0.69;86.01;96464.69;5048404;28;20036;-72
2021/01/14 06:52:14;;;;;;;3.90;2.72;;;;;;;0.64;86.59;96474.69;5049998;28;20048;-73
2021/01/14 06:54:40;;;;;;;4.32;2.40;;;;;;;0.55;85.75;96475.63;5037754;28;20045;-71
2021/01/14 06:57:15;;;;;;;2.03;1.33;;;;;;;0.44;84.68;96483.59;5046384;28;20045;-71
2021/01/14 06:59:42;;;;;;;3.33;1.40;;;;;;;0.28;83.69;96474.03;5052635;28;20378;-71
2021/01/14 07:02:33;;;;;;;2.47;1.55;;;;;;;0.16;83.02;96478.63;5050534;28;20049;-71
2021/01/14 07:05:07;;;;;;;2.13;1.77;;;;;;;0.06;84.46;96477.91;5037164;28;20462;-72
2021/01/14 07:07:46;;;;;;;2.20;2.00;;;;;;;0.01;85.18;96480.16;5047594;28;20486;-71
2021/01/14 07:10:14;;;;;;;3.25;2.05;;;;;;;0.00;85.05;96489.66;5050711;28;20036;-71
2021/01/14 07:12:43;;;;;;;5.05;2.38;;;;;;;0.03;85.35;96488.53;5045811;28;20056;-72
2021/01/14 07:15:15;;;;;;;4.22;2.78;;;;;;;-0.02;85.29;96491.56;5045549;28;20097;-71
2021/01/14 07:17:43;;;;;;;3.45;3.15;;;;;;;-0.07;85.86;96491.19;5050787;28;20052;-72
2021/01/14 07:20:14;;;;;;;4.57;2.88;;;;;;;-0.09;85.27;96487.97;5042220;28;20054;-71
2021/01/14 07:23:01;;;;;;;3.20;2.00;;;;;;;-0.18;84.12;96484.50;5036353;28;20049;-71
2021/01/14 07:25:31;;;;;;;2.35;2.00;;;;;;;-0.18;84.58;96481.13;5050117;28;20041;-72
2021/01/14 07:28:01;;;;;;;3.58;2.83;;;;;;;-0.12;85.35;96476.19;5038761;28;20056;-71
2021/01/14 07:30:30;;;;;;;4.28;2.78;;;;;;;-0.06;85.13;96478.16;5049788;28;20049;-72
2021/01/14 07:33:04;;;;;;;4.50;2.75;;;;;;;0.00;85.24;96469.03;5051011;28;20045;-72
2021/01/14 07:35:38;;;;;;;4.07;3.13;;;;;;;-0.03;83.93;96467.53;5045703;28;20048;-72
2021/01/14 07:38:08;;;;;;;5.78;3.22;;;;;;;-0.07;84.38;96480.88;5048175;28;20053;-72
2021/01/14 07:40:36;;;;;;;5.50;3.67;;;;;;;-0.13;83.42;96479.72;5028756;28;20414;-72
2021/01/14 07:43:14;;;;;;;3.35;2.40;;;;;;;-0.16;83.26;96467.13;5042461;28;20082;-71
2021/01/14 07:45:41;;;;;;;2.60;2.17;;;;;;;-0.24;82.69;96464.50;5053944;28;20037;-72
2021/01/14 07:48:22;;;;;;;5.28;2.80;;;;;;;-0.29;83.07;96475.25;5018995;28;20395;-72
2021/01/14 07:50:50;;;;;;;7.47;3.28;;;;;;;-0.29;84.03;96482.19;5036901;28;20049;-73
2021/01/14 07:53:17;;;;;;;4.85;2.90;;;;;;;0.57;100.00;96484.81;5040906;28;20044;-72
2021/01/14 07:55:43;;;;;;;6.57;2.83;;;;;;;0.79;86.21;96498.94;5050068;28;20053;-72
2021/01/14 07:58:13;;;;;;;4.05;2.58;;;;;;;0.99;89.67;96494.34;5054327;28;20033;-72
2021/01/14 08:00:40;;;;;;;2.55;2.08;;;;;;;1.18;85.37;96492.47;5052638;28;20056;-71
2021/01/14 08:03:14;;;;;;;4.95;1.70;;;;;;;0.96;80.99;96493.84;5035505;28;20037;-72
2021/01/14 08:05:56;;;;;;;3.70;1.90;;;;;;;0.69;82.24;96492.28;5055561;28;20044;-73
2021/01/14 08:08:26;;;;;;;4.68;2.13;;;;;;;0.52;82.96;96499.94;5042496;28;20060;-71
2021/01/14 08:11:25;;;;;;;4.25;2.40;;;;;;;0.38;82.37;96497.94;5043771;28;20052;-71
2021/01/14 08:14:11;;;;;;;5.40;3.08;;;;;;;0.20;83.04;96506.53;5000521;28;20044;-72
2021/01/14 08:16:49;;;;;;;11.98;4.63;;;;;;;0.10;83.59;96507.59;5052342;28;20055;-72
2021/01/14 08:19:23;;;;;;;11.18;4.70;;;;;;;0.01;83.75;96508.50;5055617;28;20048;-71
2021/01/14 08:21:59;;;;;;;11.77;4.32;;;;;;;0.02;83.79;96518.63;5048176;28;20038;-72
2021/01/14 08:24:45;;;;;;;6.32;3.58;;;;;;;-0.02;83.65;96532.81;5046369;28;20469;-72
2021/01/14 08:27:22;;;;;;;5.95;3.38;;;;;;;-0.10;82.43;96519.88;5050947;28;20382;-72
2021/01/14 08:29:51;;;;;;;5.50;2.42;;;;;;;-0.22;81.96;96527.00;5054936;28;20052;-71
2021/01/14 08:32:40;;;;;;;5.03;2.72;;;;;;;-0.25;82.17;96519.59;5048597;28;20068;-72
2021/01/14 08:35:28;;;;;;;4.13;2.22;;;;;;;-0.24;81.75;96524.56;5047813;28;20048;-72
2021/01/14 08:38:00;;;;;;;6.78;2.38;;;;;;;-0.19;82.02;96526.69;5054729;28;20055;-71
2021/01/14 08:40:35;;;;;;;3.10;1.98;;;;;;;-0.20;81.49;96530.25;5053119;28;20041;-72
2021/01/14 08:43:05;;;;;;;3.40;1.50;;;;;;;-0.20;81.44;96519.94;5053171;28;20504;-72
2021/01/14 08:45:43;;;;;;;5.13;1.80;;;;;;;-0.16;82.05;96518.69;5053794;28;20036;-72
2021/01/14 08:48:25;;;;;;;2.60;1.85;;;;;;;-0.09;82.17;96524.03;5050593;28;20045;-72
2021/01/14 08:50:58;;;;;;;2.67;1.85;;;;;;;-0.06;81.43;96519.41;5054200;28;20057;-72
2021/01/14 08:53:29;;;;;;;5.50;1.80;;;;;;;-0.10;80.40;96528.41;5055079;28;20033;-72
2021/01/14 08:56:07;;;;;;;2.53;1.75;;;;;;;-0.22;79.02;96537.31;5049178;28;20037;-72
2021/01/14 08:58:42;;;;;;;2.17;1.77;;;;;;;-0.28;80.43;96536.13;5053455;28;20053;-72
2021/01/14 09:01:18;;;;;;;;;;;;;;;-0.30;77.86;96539.81;5049517;28;20049;-72
2021/01/14 09:03:50;;;;;;;2.63;1.70;;;;;;;-0.23;81.28;96549.41;5052875;28;19920;-72
2021/01/14 09:06:58;;;;;;;4.70;2.50;;;;;;;-0.11;80.90;96546.59;5053937;28;20041;-72
2021/01/14 09:10:12;;;;;;;8.25;4.20;;;;;;;-0.01;82.02;96557.63;5031783;28;20048;-72
2021/01/14 09:12:40;;;;;;;6.30;3.78;;;;;;;0.09;82.45;96562.72;5053667;28;20052;-73
2021/01/14 09:15:31;;;;;;;5.22;2.58;;;;;;;0.16;82.13;96551.63;5054717;28;20033;-71
2021/01/14 09:17:59;;;;;;;2.45;2.03;;;;;;;0.24;82.45;96556.06;5064413;28;20056;-72
2021/01/14 09:20:36;;;;;;;3.30;2.75;;;;;;;0.26;81.67;96564.44;5074200;28;20493;-72
2021/01/14 09:23:24;;;;;;;4.28;2.40;;;;;;;0.31;83.65;96567.38;5073162;28;20110;-72
2021/01/14 09:25:55;;;;;;;8.48;3.38;;;;;;;0.50;82.28;96576.69;5068330;28;20052;-72
2021/01/14 09:28:36;;;;;;;5.22;2.90;;;;;;;0.60;81.51;96581.75;5066620;28;20041;-72
2021/01/14 09:31:05;;;;;;;3.97;2.30;;;;;;;0.66;81.74;96573.41;5069885;28;20052;-72
2021/01/14 09:33:38;;;;;;;5.47;2.45;;;;;;;0.71;81.24;96575.53;5070410;28;20044;-75
2021/01/14 09:36:18;;;;;;;4.22;2.80;;;;;;;0.73;81.19;96577.00;5072068;28;20036;-72
2021/01/14 09:38:49;;;;;;;4.13;2.60;;;;;;;0.75;81.04;96584.59;5065642;28;20052;-72
2021/01/14 09:41:36;;;;;;;5.60;2.55;;;;;;;0.76;81.11;96583.66;5071903;28;20051;-72
2021/01/14 09:44:02;;;;;;;3.90;2.50;;;;;;;0.74;81.20;96588.94;5073722;28;20051;-72
2021/01/14 09:46:35;;;;;;;5.28;2.28;;;;;;;0.68;80.61;96606.81;5071004;28;20041;-72
2021/01/14 09:49:20;;;;;;;3.30;1.98;;;;;;;0.66;80.14;96611.31;5052899;28;20063;-72
2021/01/14 09:51:51;;;;;;;3.28;2.03;;;;;;;0.66;82.16;96617.28;5059884;28;20040;-72
2021/01/14 09:54:19;;;;;;;2.10;1.90;;;;;;;1.49;94.65;96621.91;5068239;28;20128;-72
2021/01/14 09:56:56;;;;;;;4.63;1.70;;;;;;;2.52;88.64;96612.97;5066853;28;20052;-73
2021/01/14 09:59:32;;;;;;;1.65;1.50;;;;;;;3.42;82.34;96616.19;5072486;28;20051;-72
2021/01/14 10:02:06;;;;;;;2.30;1.90;;;;;;;4.11;81.86;96627.66;5065717;28;20067;-72
2021/01/14 10:04:35;;;;;;;5.45;2.05;;;;;;;4.64;79.95;96623.34;5069916;28;20047;-72
2021/01/14 10:07:05;;;;;;;2.65;2.03;;;;;;;5.01;79.02;96627.69;5065668;28;20044;-73
2021/01/14 10:09:36;;;;;;;3.80;2.33;;;;;;;5.23;76.32;96626.03;5066181;28;20040;-72
2021/01/14 10:12:06;;;;;;;3.03;2.53;;;;;;;5.39;76.32;96630.22;5066689;28;20063;-73
2021/01/14 10:14:32;;;;;;;3.08;2.20;;;;;;;5.58;77.15;96617.66;5072736;28;20045;-72
2021/01/14 10:17:35;;;;;;;3.63;2.15;;;;;;;5.76;71.07;96623.28;5061238;28;20161;-72
2021/01/14 10:20:05;;;;;;;5.03;2.60;;;;;;;5.52;75.39;96624.38;4996755;28;20045;-73
2021/01/14 10:22:34;;;;;;;3.03;2.05;;;;;;;5.02;74.32;96624.13;5022822;28;20046;-72
2021/01/14 10:25:27;;;;;;;5.57;1.90;;;;;;;4.44;71.20;96612.66;5029560;28;20485;-72
2021/01/14 10:28:01;;;;;;;3.75;2.65;;;;;;;4.02;72.87;96613.94;5044278;28;20405;-72
2021/01/14 10:30:31;;;;;;;7.80;3.65;;;;;;;3.65;73.96;96628.38;5042436;28;20055;-73
2021/01/14 10:33:05;;;;;;;5.80;2.83;;;;;;;3.34;73.10;96620.56;5048003;28;20397;-71
2021/01/14 10:35:36;;;;;;;2.65;2.20;;;;;;;3.48;76.71;96630.25;5045910;28;20048;-72
2021/01/14 10:38:11;;;;;;;5.70;3.20;;;;;;;3.89;74.86;96637.84;5047010;28;20504;-73
2021/01/14 10:40:41;;;;;;;4.53;2.85;;;;;;;3.81;74.77;96643.88;5044433;28;20033;-72
2021/01/14 10:43:09;;;;;;;8.38;3.10;;;;;;;3.53;74.14;96643.53;5051229;28;20041;-72
2021/01/14 10:45:40;;;;;;;9.38;3.15;;;;;;;3.23;73.71;96640.72;5046250;28;20041;-72
2021/01/14 10:48:10;;;;;;;5.55;2.53;;;;;;;2.95;73.87;96642.06;5052512;28;20049;-73
2021/01/14 10:50:47;;;;;;;6.85;3.50;;;;;;;2.89;72.60;96653.09;5036984;28;20048;-72
2021/01/14 10:53:27;;;;;;;4.68;3.00;;;;;;;2.63;72.64;96648.91;5034374;28;20060;-72
2021/01/14 10:56:14;;;;;;;4.43;2.90;;;;;;;2.46;72.92;96648.13;5040197;28;20045;-73
2021/01/14 10:58:41;;;;;;;4.88;3.20;;;;;;;2.32;74.19;96646.97;5043092;28;20044;-72
2021/01/14 11:01:17;;;;;;;6.07;3.10;;;;;;;2.26;73.76;96654.56;5052566;28;20377;-73
2021/01/14 11:03:44;;;;;;;9.18;4.20;;;;;;;2.20;74.57;96651.63;5046396;28;20064;-75
2021/01/14 11:06:10;;;;;;;10.00;4.95;;;;;;;2.15;74.66;96650.50;5030362;28;20029;-73
2021/01/14 11:08:46;;;;;;;9.05;5.10;;;;;;;2.05;73.94;96653.22;5038952;28;20051;-73
2021/01/14 11:11:31;;;;;;;6.20;3.58;;;;;;;1.87;74.10;96653.38;5045986;28;20052;-73
2021/01/14 11:13:58;;;;;;;6.03;3.33;;;;;;;1.72;73.89;96648.00;5041256;28;20045;-73
2021/01/14 11:16:26;;;;;;;7.35;3.80;;;;;;;1.59;73.68;96650.19;5042895;28;20037;-73
2021/01/14 11:18:58;;;;;;;5.75;3.60;;;;;;;1.55;73.66;96647.09;5044063;28;20115;-73
2021/01/14 11:21:33;;;;;;;6.60;3.42;;;;;;;1.55;73.86;96633.38;5048731;28;20079;-74
2021/01/14 11:24:00;;;;;;;4.43;2.78;;;;;;;1.49;73.81;96634.84;5052425;28;20512;-73
2021/01/14 11:26:27;;;;;;;4.22;3.38;;;;;;;1.55;74.39;96641.94;5054684;28;20067;-73
2021/01/14 11:29:11;;;;;;;10.35;3.80;;;;;;;1.64;74.48;96645.38;5046552;28;20416;-73
2021/01/14 11:31:37;;;;;;;7.63;3.97;;;;;;;1.73;74.54;96641.84;5054467;28;20045;-73
2021/01/14 11:34:04;;;;;;;7.13;3.70;;;;;;;1.80;74.58;96636.84;5031872;28;20037;-77
2021/01/14 11:36:30;;;;;;;6.30;4.20;;;;;;;1.87;74.46;96637.03;5048568;28;20387;-78
2021/01/14 11:38:56;;;;;;;4.78;3.70;;;;;;;1.75;72.95;96629.56;5046998;28;20060;-72
2021/01/14 11:41:25;;;;;;;4.85;3.25;;;;;;;1.65;72.99;96634.06;5048220;28;20046;-72
2021/01/14 11:43:51;;;;;;;4.47;3.28;;;;;;;1.63;73.44;96629.03;5053529;28;20060;-72
2021/01/14 11:46:21;;;;;;;7.55;4.97;;;;;;;1.62;73.31;96618.88;5037608;28;20480;-73
2021/01/14 11:48:47;;;;;;;18.42;13.77;;;;;;;1.62;72.77;96629.22;5050203;28;20052;-72
2021/01/14 11:51:13;;;;;;;1999.90;999.90;;;;;;;1.60;73.85;96615.66;5027423;28;20069;-74
2021/01/14 11:53:40;;;;;;;1904.40;918.05;;;;;;;2.22;77.87;96610.06;5038693;28;20048;-74
2021/01/14 11:56:06;;;;;;;1106.78;648.83;;;;;;;3.01;76.67;96605.94;5033023;28;20045;-74
2021/01/14 11:58:34;;;;;;;508.65;279.15;;;;;;;3.75;75.40;96604.84;5054793;28;20052;-73